Time;durP1;ratioP1;P1;durP2;ratioP2;P2;SDS_P1;SDS_P2;PMS_P1;PMS_P2;Temp;Humidity;BMP_temperature;BMP_pressure;BME280_temperature;BME280_humidity;BME280_pressure;Samples;Min_cycle;Max_cycle;Signal;HPM_P1;HPM_P2
2023/12/16 00:02:28;;;;;;;0.00;0.00;;;;;;;-145.06;100.00;54805.84;10434728;28;20013;-68
2023/12/16 00:07:28;;;;;;;0.00;0.00;;;;;;;-145.06;100.00;54820.00;10440144;28;20028;-69
2023/12/16 00:12:29;;;;;;;0.00;0.00;;;;;;;-145.06;100.00;54809.88;10442681;28;20461;-68
2023/12/16 00:17:29;;;;;;;0.00;0.00;;;;;;;-145.06;100.00;54815.97;10442623;28;20025;-69
2023/12/16 00:22:29;;;;;;;0.00;0.00;;;;;;;-145.06;100.00;54840.28;10441040;28;20021;-69
2023/12/16 00:27:30;;;;;;;0.00;0.00;;;;;;;-145.06;100.00;54811.91;10440807;28;20017;-68
2023/12/16 00:32:30;;;;;;;0.00;0.00;;;;;;;-145.06;100.00;54822.03;10420323;28;20472;-69
2023/12/16 00:37:30;;;;;;;0.00;0.00;;;;;;;-145.06;100.00;54801.78;10438743;28;20078;-69
2023/12/16 00:42:30;;;;;;;0.00;0.00;;;;;;;-145.06;100.00;54815.97;10434239;28;20029;-69
2023/12/16 00:47:31;;;;;;;0.00;0.00;;;;;;;-145.06;100.00;54848.38;10440838;28;20450;-69
2023/12/16 00:52:31;;;;;;;0.00;0.00;;;;;;;-145.06;100.00;54840.28;10443841;28;20021;-70
2023/12/16 00:57:32;;;;;;;0.00;0.00;;;;;;;-145.06;100.00;54840.28;10443422;28;20486;-70
2023/12/16 01:02:32;;;;;;;0.00;0.00;;;;;;;-145.06;100.00;54866.59;10433296;28;20017;-70
2023/12/16 01:07:32;;;;;;;0.00;0.00;;;;;;;-145.06;100.00;54824.06;10435864;28;20037;-68
2023/12/16 01:12:33;;;;;;;0.00;0.00;;;;;;;-145.06;100.00;54830.16;10437711;28;20087;-70
2023/12/16 01:17:33;;;;;;;0.00;0.00;;;;;;;-145.06;100.00;54856.47;10438581;28;20560;-69
2023/12/16 01:22:33;;;;;;;0.00;0.00;;;;;;;-145.06;100.00;54832.16;10436293;28;20056;-70
2023/12/16 01:27:33;;;;;;;0.00;0.00;;;;;;;-145.06;100.00;54822.03;10443846;28;20403;-69
2023/12/16 01:32:34;;;;;;;0.00;0.00;;;;;;;-145.06;100.00;54803.81;10439597;28;20021;-69
2023/12/16 01:37:34;;;;;;;0.00;0.00;;;;;;;-145.06;100.00;54763.31;10435345;28;20272;-69
2023/12/16 01:42:34;;;;;;;0.10;0.10;;;;;;;-145.06;100.00;54797.72;10439916;28;20378;-70
2023/12/16 01:47:35;;;;;;;0.10;0.10;;;;;;;-145.06;100.00;54781.53;10436590;28;20020;-70
2023/12/16 01:52:35;;;;;;;0.00;0.00;;;;;;;-145.06;100.00;54753.16;10423456;28;20408;-68
2023/12/16 01:57:36;;;;;;;0.10;0.10;;;;;;;-145.06;100.00;54720.75;10439323;28;20482;-69
2023/12/16 02:02:37;;;;;;;0.00;0.00;;;;;;;-145.06;100.00;54734.94;10437211;28;20120;-69
2023/12/16 02:07:37;;;;;;;0.00;0.00;;;;;;;-145.06;100.00;54730.88;10442667;28;20463;-70
2023/12/16 02:12:37;;;;;;;0.07;0.07;;;;;;;-145.06;100.00;54718.72;10434482;28;20026;-70
2023/12/16 02:17:38;;;;;;;0.00;0.00;;;;;;;-145.06;100.00;54710.63;10442383;28;20295;-69
2023/12/16 02:22:38;;;;;;;0.10;0.10;;;;;;;-145.06;100.00;54718.72;10438723;28;20506;-69
2023/12/16 02:27:40;;;;;;;0.08;0.08;;;;;;;-145.06;100.00;54716.72;10418715;28;20017;-70
2023/12/16 02:32:43;;;;;;;0.00;0.00;;;;;;;-145.06;100.00;54712.66;10433624;28;20036;-69
2023/12/16 02:37:43;;;;;;;0.00;0.00;;;;;;;-145.06;100.00;54674.19;10433226;28;20108;-70
2023/12/16 02:42:44;;;;;;;0.00;0.00;;;;;;;-145.06;100.00;54690.38;10432070;28;20021;-69
2023/12/16 02:47:44;;;;;;;0.00;0.00;;;;;;;-145.06;100.00;54706.59;10437693;28;20044;-69
2023/12/16 02:52:45;;;;;;;0.10;0.10;;;;;;;-145.06;100.00;54712.66;10433225;28;20375;-69
2023/12/16 02:57:45;;;;;;;0.00;0.00;;;;;;;-145.06;100.00;54718.72;10446960;28;20496;-68
2023/12/16 03:02:45;;;;;;;0.10;0.10;;;;;;;-145.06;100.00;54657.97;10433959;28;20017;-68
2023/12/16 03:07:46;;;;;;;0.00;0.00;;;;;;;-145.06;100.00;54698.47;10437962;28;20538;-68
2023/12/16 03:12:46;;;;;;;0.00;0.00;;;;;;;-145.06;100.00;54714.69;10412553;28;20029;-67
2023/12/16 03:17:46;;;;;;;0.00;0.00;;;;;;;-145.06;100.00;54702.53;10433989;28;20052;-68
2023/12/16 03:22:47;;;;;;;0.00;0.00;;;;;;;-145.06;100.00;54698.47;10415475;28;20029;-68
2023/12/16 03:27:47;;;;;;;0.10;0.10;;;;;;;-145.06;100.00;54660.00;10437892;28;20374;-69
2023/12/16 03:32:47;;;;;;;0.00;0.00;;;;;;;-145.06;100.00;54704.56;10438441;28;20031;-69
2023/12/16 03:37:48;;;;;;;0.00;0.00;;;;;;;-145.06;100.00;54686.31;10439279;28;20016;-68
2023/12/16 03:42:48;;;;;;;0.00;0.00;;;;;;;-145.06;100.00;54688.34;10444709;28;20665;-68
2023/12/16 03:47:48;;;;;;;0.00;0.00;;;;;;;-145.06;100.00;54686.31;10443874;28;20515;-68
2023/12/16 03:52:48;;;;;;;0.00;0.00;;;;;;;-145.06;100.00;54678.22;10449686;28;20013;-68
2023/12/16 03:57:49;;;;;;;0.00;0.00;;;;;;;-145.06;100.00;54694.44;10442200;28;20022;-68
2023/12/16 04:02:49;;;;;;;0.10;0.10;;;;;;;-145.06;100.00;54680.25;10452201;28;20020;-68
2023/12/16 04:07:49;;;;;;;0.10;0.10;;;;;;;-145.06;100.00;54680.25;10444336;28;20265;-68
2023/12/16 04:12:50;;;;;;;0.03;0.03;;;;;;;-145.06;100.00;54672.16;10447874;28;20025;-68
2023/12/16 04:17:50;;;;;;;0.00;0.00;;;;;;;-145.06;100.00;54682.28;10447096;28;20025;-68
2023/12/16 04:22:50;;;;;;;0.10;0.10;;;;;;;-145.06;100.00;54666.06;10450852;28;20035;-68
2023/12/16 04:27:50;;;;;;;0.10;0.10;;;;;;;-145.06;100.00;54708.59;10450473;28;20033;-68
2023/12/16 04:32:51;;;;;;;0.00;0.00;;;;;;;-145.06;100.00;54694.44;10447702;28;20025;-68
2023/12/16 04:37:51;;;;;;;0.10;0.10;;;;;;;-145.06;100.00;54682.28;10444238;28;20406;-69
2023/12/16 04:42:51;;;;;;;0.08;0.08;;;;;;;-145.06;100.00;54678.22;10447380;28;20014;-68
2023/12/16 04:47:51;;;;;;;0.05;0.05;;;;;;;-145.06;100.00;54674.19;10449056;28;20017;-68
2023/12/16 04:52:52;;;;;;;0.00;0.00;;;;;;;-145.06;100.00;54682.28;10416486;28;20025;-68
2023/12/16 04:57:52;;;;;;;0.10;0.10;;;;;;;-145.06;100.00;54664.03;10417967;28;20032;-68
2023/12/16 05:02:52;;;;;;;0.10;0.10;;;;;;;-145.06;100.00;54674.19;10442908;28;20367;-68
2023/12/16 05:07:53;;;;;;;0.00;0.00;;;;;;;-145.06;100.00;54655.94;10428455;28;20024;-68
2023/12/16 05:12:53;;;;;;;0.00;0.00;;;;;;;-145.06;100.00;54641.75;10433055;28;20039;-69
2023/12/16 05:17:53;;;;;;;0.10;0.10;;;;;;;-145.06;100.00;54670.13;10441906;28;20021;-69
2023/12/16 05:22:53;;;;;;;0.10;0.10;;;;;;;-145.06;100.00;54686.31;10436734;28;20232;-68
2023/12/16 05:27:55;;;;;;;0.00;0.00;;;;;;;-145.06;100.00;54647.84;10442283;28;20021;-67
2023/12/16 05:32:55;;;;;;;0.00;0.00;;;;;;;-145.06;100.00;54631.63;10441736;28;20017;-68
2023/12/16 05:37:56;;;;;;;0.00;0.00;;;;;;;-145.06;100.00;54623.53;10434580;28;20021;-68
2023/12/16 05:42:56;;;;;;;0.05;0.05;;;;;;;-145.06;100.00;54668.09;10431249;28;20263;-68
2023/12/16 05:47:56;;;;;;;0.00;0.00;;;;;;;-145.06;100.00;54649.88;10423761;28;20017;-68
2023/12/16 05:52:57;;;;;;;0.00;0.00;;;;;;;-145.06;100.00;54670.13;10418640;28;20036;-68
2023/12/16 05:57:57;;;;;;;0.00;0.00;;;;;;;-145.06;100.00;54690.38;10439278;28;20474;-67
2023/12/16 06:02:58;;;;;;;0.00;0.00;;;;;;;-145.06;100.00;54676.19;10439371;28;20494;-67
2023/12/16 06:07:59;;;;;;;0.10;0.10;;;;;;;-145.06;100.00;54617.47;10429834;28;20036;-67
2023/12/16 06:12:59;;;;;;;0.10;0.10;;;;;;;-145.06;100.00;54664.03;10441646;28;20039;-68
2023/12/16 06:18:03;;;;;;;0.10;0.10;;;;;;;-145.06;100.00;54657.97;10437965;28;20071;-68
2023/12/16 06:23:04;;;;;;;0.00;0.00;;;;;;;-145.06;100.00;54674.19;10439475;28;20156;-67
2023/12/16 06:28:04;;;;;;;0.10;0.10;;;;;;;-145.06;100.00;54649.88;10430422;28;20500;-68
2023/12/16 06:33:04;;;;;;;0.00;0.00;;;;;;;-145.06;100.00;54664.03;10428678;28;20087;-69
2023/12/16 06:38:05;;;;;;;0.00;0.00;;;;;;;-145.06;100.00;54672.16;10440405;28;20021;-68
2023/12/16 06:43:05;;;;;;;0.00;0.00;;;;;;;-145.06;100.00;54688.34;10440429;28;20022;-68
2023/12/16 06:48:05;;;;;;;0.10;0.10;;;;;;;-145.06;100.00;54649.88;10439263;28;20029;-69
2023/12/16 06:53:06;;;;;;;0.00;0.00;;;;;;;-145.06;100.00;54670.13;10429404;28;20036;-68
2023/12/16 06:58:07;;;;;;;0.00;0.00;;;;;;;-145.06;100.00;54655.94;10438735;28;20035;-67
2023/12/16 07:03:07;;;;;;;0.00;0.00;;;;;;;-145.06;100.00;54660.00;10431297;28;20116;-67
2023/12/16 07:08:08;;;;;;;0.10;0.10;;;;;;;-145.06;100.00;54668.09;10439549;28;20810;-67
2023/12/16 07:13:08;;;;;;;0.00;0.00;;;;;;;-145.06;100.00;54643.78;10433977;28;20040;-68
2023/12/16 07:18:08;;;;;;;0.00;0.00;;;;;;;-145.06;100.00;54653.91;10438628;28;20024;-68
2023/12/16 07:23:09;;;;;;;0.00;0.00;;;;;;;-145.06;100.00;54647.84;10434674;28;20025;-68
2023/12/16 07:28:09;;;;;;;0.10;0.10;;;;;;;-145.06;100.00;54625.56;10428523;28;20029;-68
2023/12/16 07:33:09;;;;;;;0.00;0.00;;;;;;;-145.06;100.00;54649.88;10439267;28;20018;-68
2023/12/16 07:38:10;;;;;;;0.10;0.10;;;;;;;-145.06;100.00;54625.56;10435214;28;20021;-68
2023/12/16 07:43:10;;;;;;;0.00;0.00;;;;;;;-145.06;100.00;54639.75;10429982;28;20017;-68
2023/12/16 07:48:10;;;;;;;0.10;0.10;;;;;;;-145.06;100.00;54625.56;10439321;28;20151;-68
2023/12/16 07:53:10;;;;;;;0.00;0.00;;;;;;;-145.06;100.00;54629.63;10417319;28;20027;-68
2023/12/16 07:58:12;;;;;;;0.10;0.10;;;;;;;-145.06;100.00;54676.19;10438962;28;20091;-68
2023/12/16 08:03:13;;;;;;;0.00;0.00;;;;;;;-145.06;100.00;54686.31;10435094;28;20260;-68
2023/12/16 08:08:13;;;;;;;0.03;0.03;;;;;;;-145.06;100.00;54666.06;10435363;28;20071;-69
2023/12/16 08:13:13;;;;;;;0.10;0.10;;;;;;;-145.06;100.00;54645.81;10435924;28;20021;-69
2023/12/16 08:18:15;;;;;;;0.00;0.00;;;;;;;-145.06;100.00;54682.28;10429832;28;20013;-69
2023/12/16 08:23:16;;;;;;;0.00;0.00;;;;;;;-145.06;100.00;54686.31;10430749;28;20033;-69
2023/12/16 08:28:16;;;;;;;0.10;0.10;;;;;;;-145.06;100.00;54692.41;10423786;28;20502;-69
2023/12/16 08:33:16;;;;;;;0.00;0.00;;;;;;;-145.06;100.00;54660.00;10444787;28;20029;-69
2023/12/16 08:38:17;;;;;;;0.10;0.10;;;;;;;-145.06;100.00;54694.44;10445695;28;20017;-69
2023/12/16 08:43:17;;;;;;;0.10;0.10;;;;;;;-145.06;100.00;54668.09;10437806;28;20041;-69
2023/12/16 08:48:17;;;;;;;0.10;0.10;;;;;;;-145.06;100.00;54716.72;10440585;28;20033;-69
2023/12/16 08:53:17;;;;;;;0.10;0.10;;;;;;;-145.06;100.00;54724.81;10423343;28;20017;-69
2023/12/16 08:58:18;;;;;;;0.10;0.10;;;;;;;-145.06;100.00;54767.34;10426518;28;20105;-69
2023/12/16 09:03:18;;;;;;;0.00;0.00;;;;;;;-145.06;100.00;54761.28;10445609;28;20025;-68
2023/12/16 09:08:19;;;;;;;0.08;0.08;;;;;;;-145.06;100.00;54736.97;10442125;28;20082;-68
2023/12/16 09:13:19;;;;;;;0.00;0.00;;;;;;;-145.06;100.00;54757.22;10437590;28;20385;-68
2023/12/16 09:18:19;;;;;;;0.00;0.00;;;;;;;-145.06;100.00;54767.34;10418604;28;20032;-68
2023/12/16 09:23:20;;;;;;;0.10;0.10;;;;;;;-145.06;100.00;54761.28;10442739;28;20032;-68
2023/12/16 09:28:20;;;;;;;0.00;0.00;;;;;;;-145.06;100.00;54783.56;10436143;28;20466;-69
2023/12/16 09:33:21;;;;;;;0.00;0.00;;;;;;;-145.06;100.00;54779.50;10436258;28;20013;-68
2023/12/16 09:38:22;;;;;;;0.00;0.00;;;;;;;-145.06;100.00;54785.59;10438512;28;20455;-69
2023/12/16 09:43:22;;;;;;;0.00;0.00;;;;;;;-145.06;100.00;54809.88;10418169;28;20029;-68
2023/12/16 09:48:23;;;;;;;0.10;0.10;;;;;;;-145.06;100.00;54769.38;10412199;28;20114;-69
2023/12/16 09:53:23;;;;;;;0.10;0.10;;;;;;;-145.06;100.00;54799.75;10437304;28;20017;-68
2023/12/16 09:58:23;;;;;;;0.10;0.10;;;;;;;-145.06;100.00;54789.63;10441222;28;20028;-68
2023/12/16 10:03:24;;;;;;;0.00;0.00;;;;;;;-145.06;100.00;54793.69;10438922;28;20366;-69
2023/12/16 10:08:24;;;;;;;0.10;0.10;;;;;;;-145.06;100.00;54779.50;10440531;28;20697;-69
2023/12/16 10:13:26;;;;;;;0.00;0.00;;;;;;;-145.06;100.00;54763.31;10438455;28;20029;-69
2023/12/16 10:18:27;;;;;;;0.00;0.00;;;;;;;-145.06;100.00;54739.00;10439525;28;20029;-69
2023/12/16 10:23:27;;;;;;;0.00;0.00;;;;;;;-145.06;100.00;54710.63;10441214;28;20033;-69
2023/12/16 10:28:31;;;;;;;0.10;0.10;;;;;;;-145.06;100.00;54694.44;10434594;28;20074;-69
2023/12/16 10:33:31;;;;;;;0.03;0.03;;;;;;;-145.06;100.00;54690.38;10428094;28;20256;-69
2023/12/16 10:38:31;;;;;;;0.00;0.00;;;;;;;-145.06;100.00;54670.13;10438035;28;20017;-68
2023/12/16 10:43:32;;;;;;;0.00;0.00;;;;;;;-145.06;100.00;54655.94;10423489;22;20034;-70
2023/12/16 10:48:34;;;;;;;0.00;0.00;;;;;;;-145.06;100.00;54637.72;10353723;28;20038;-70
2023/12/16 10:53:44;;;;;;;0.10;0.10;;;;;;;-145.06;100.00;54653.91;10351116;28;20041;-70
2023/12/16 10:58:55;;;;;;;0.00;0.00;;;;;;;-145.06;100.00;54631.63;10353392;28;20014;-72
2023/12/16 11:04:02;;;;;;;0.00;0.00;;;;;;;-145.06;100.00;54662.03;10352916;28;20026;-70
2023/12/16 11:09:04;;;;;;;0.10;0.10;;;;;;;-145.06;100.00;54666.06;10350831;28;20502;-70
2023/12/16 11:14:05;;;;;;;0.00;0.00;;;;;;;-145.06;100.00;54595.19;10355043;28;20734;-70
2023/12/16 11:19:09;;;;;;;0.00;0.00;;;;;;;-145.06;100.00;54627.59;10352773;28;20030;-70
2023/12/16 11:24:10;;;;;;;0.10;0.10;;;;;;;-145.06;100.00;54627.59;10352237;28;20018;-70
2023/12/16 11:29:12;;;;;;;0.03;0.03;;;;;;;-145.06;100.00;54702.53;10354416;28;20037;-70
2023/12/16 11:34:40;;;;;;;0.10;0.10;;;;;;;-145.06;100.00;54660.00;10351252;28;20022;-70
2023/12/16 11:39:45;;;;;;;0.00;0.00;;;;;;;-145.06;100.00;54670.13;10349716;28;20049;-70
2023/12/16 11:44:48;;;;;;;;;;;;;;;-145.06;100.00;54666.06;10350807;28;20399;-70
2023/12/16 11:49:49;;;;;;;0.00;0.00;;;;;;;-145.06;100.00;54676.19;10353102;28;19967;-70
2023/12/16 11:54:57;;;;;;;0.00;0.00;;;;;;;-145.06;100.00;54678.22;10351720;28;20157;-70
2023/12/16 11:59:58;;;;;;;0.10;0.10;;;;;;;-145.06;100.00;54686.31;10357232;28;20082;-70
2023/12/16 12:05:00;;;;;;;0.03;0.03;;;;;;;-145.06;100.00;54686.31;10362307;28;20029;-70
2023/12/16 12:10:00;;;;;;;0.10;0.10;;;;;;;-145.06;100.00;54702.53;10359803;28;20409;-70
2023/12/16 12:15:01;;;;;;;0.10;0.10;;;;;;;-145.06;100.00;54700.50;10363714;28;20108;-70
2023/12/16 12:20:03;;;;;;;0.00;0.00;;;;;;;-145.06;100.00;54722.78;10361004;28;20670;-70
2023/12/16 12:25:04;;;;;;;0.10;0.10;;;;;;;-145.06;100.00;54716.72;10360831;28;20022;-70
2023/12/16 12:30:05;;;;;;;0.10;0.10;;;;;;;-145.06;100.00;54765.31;10361945;28;20029;-70
2023/12/16 12:35:11;;;;;;;0.05;0.05;;;;;;;-145.06;100.00;54743.03;10362490;28;20429;-70
2023/12/16 12:40:18;;;;;;;0.10;0.10;;;;;;;-145.06;100.00;54747.09;10361553;28;20442;-70
2023/12/16 12:45:35;;;;;;;0.00;0.00;;;;;;;-145.06;100.00;54759.25;10361725;28;20100;-70
2023/12/16 12:50:36;;;;;;;0.10;0.10;;;;;;;-145.06;100.00;54763.31;10356526;28;20062;-70
2023/12/16 12:55:37;;;;;;;0.00;0.00;;;;;;;-145.06;100.00;54765.31;10358722;28;20121;-70
2023/12/16 13:00:38;;;;;;;0.10;0.10;;;;;;;-145.06;100.00;54777.47;10359979;28;20021;-70
2023/12/16 13:05:41;;;;;;;0.00;0.00;;;;;;;-145.06;100.00;54765.31;10356659;28;20068;-71
2023/12/16 13:10:42;;;;;;;0.10;0.10;;;;;;;-145.06;100.00;54795.72;10355603;28;20029;-71
2023/12/16 13:15:42;;;;;;;0.00;0.00;;;;;;;-145.06;100.00;54801.78;10356842;28;20479;-71
2023/12/16 13:20:43;;;;;;;0.00;0.00;;;;;;;-145.06;100.00;54799.75;10359224;28;20026;-70
2023/12/16 13:25:43;;;;;;;0.10;0.10;;;;;;;-145.06;100.00;54787.59;10359204;28;20034;-71
2023/12/16 13:30:44;;;;;;;0.00;0.00;;;;;;;-145.06;100.00;54830.16;10352821;28;20029;-71
2023/12/16 13:35:46;;;;;;;0.00;0.00;;;;;;;-145.06;100.00;54832.16;10353711;28;20475;-71
2023/12/16 13:40:46;;;;;;;0.10;0.10;;;;;;;-145.06;100.00;54801.78;10351881;28;20268;-70
2023/12/16 13:45:47;;;;;;;0.10;0.10;;;;;;;-145.06;100.00;54832.16;10356214;28;20518;-71
2023/12/16 13:50:47;;;;;;;0.10;0.10;;;;;;;-145.06;100.00;54828.13;10357005;28;20112;-70
2023/12/16 13:55:48;;;;;;;0.00;0.00;;;;;;;-145.06;100.00;54822.03;10358057;28;20495;-71
2023/12/16 14:00:48;;;;;;;0.00;0.00;;;;;;;-145.06;100.00;54848.38;10357972;28;20014;-71
2023/12/16 14:05:49;;;;;;;0.10;0.10;;;;;;;-145.06;100.00;54838.25;10360779;28;20345;-70
2023/12/16 14:10:50;;;;;;;0.00;0.00;;;;;;;-145.06;100.00;54836.22;10354444;28;20022;-70
2023/12/16 14:15:50;;;;;;;0.00;0.00;;;;;;;-145.06;100.00;54842.31;10354336;28;20022;-70
2023/12/16 14:20:50;;;;;;;0.00;0.00;;;;;;;-145.06;100.00;54874.72;10354920;28;20022;-71
2023/12/16 14:25:51;;;;;;;0.00;0.00;;;;;;;-145.06;100.00;54858.50;10355168;28;20022;-70
2023/12/16 14:30:51;;;;;;;0.10;0.10;;;;;;;-145.06;100.00;54834.19;10355859;28;20037;-70
2023/12/16 14:35:51;;;;;;;0.00;0.00;;;;;;;-145.06;100.00;54850.41;10355699;28;20507;-71
2023/12/16 14:40:51;;;;;;;0.00;0.00;;;;;;;-145.06;100.00;54864.59;10354485;28;20437;-71
2023/12/16 14:45:52;;;;;;;0.00;0.00;;;;;;;-145.06;100.00;54892.94;10366000;28;20394;-71
2023/12/16 14:50:52;;;;;;;0.10;0.10;;;;;;;-145.06;100.00;54909.16;10361971;28;20038;-71
2023/12/16 14:55:54;;;;;;;0.10;0.10;;;;;;;-145.06;100.00;54892.94;10355111;28;20079;-71
2023/12/16 15:00:54;;;;;;;0.00;0.00;;;;;;;-145.06;100.00;54901.03;10358705;28;20030;-71
2023/12/16 15:05:55;;;;;;;0.10;0.10;;;;;;;-145.06;100.00;54927.38;10357015;28;20026;-71
2023/12/16 15:10:55;;;;;;;0.00;0.00;;;;;;;-145.06;100.00;54921.28;10354394;28;20026;-71
2023/12/16 15:15:55;;;;;;;0.10;0.10;;;;;;;-145.06;100.00;54935.47;10355086;28;20068;-72
2023/12/16 15:20:58;;;;;;;0.00;0.00;;;;;;;-145.06;100.00;54913.19;10352508;28;20550;-71
2023/12/16 15:25:58;;;;;;;0.10;0.10;;;;;;;-145.06;100.00;54935.47;10355441;28;20021;-71
2023/12/16 15:30:59;;;;;;;0.10;0.10;;;;;;;-145.06;100.00;54927.38;10354934;28;20030;-71
2023/12/16 15:35:59;;;;;;;0.10;0.10;;;;;;;-145.06;100.00;54959.78;10354443;28;20030;-71
2023/12/16 15:40:59;;;;;;;0.10;0.10;;;;;;;-145.06;100.00;54971.94;10368602;28;20029;-71
2023/12/16 15:46:01;;;;;;;0.00;0.00;;;;;;;-145.06;100.00;54931.44;10353340;28;20030;-71
2023/12/16 15:51:01;;;;;;;0.10;0.10;;;;;;;-145.06;100.00;54937.50;10350975;28;20022;-71
2023/12/16 15:56:05;;;;;;;0.10;0.10;;;;;;;-145.06;100.00;54953.72;10353097;28;20022;-71
2023/12/16 16:01:06;;;;;;;0.00;0.00;;;;;;;-145.06;100.00;54969.91;10354729;28;20030;-71
2023/12/16 16:06:06;;;;;;;0.10;0.10;;;;;;;-145.06;100.00;54953.72;10353029;28;20038;-71
2023/12/16 16:11:07;;;;;;;0.00;0.00;;;;;;;-145.06;100.00;54971.94;10352928;28;20292;-71
2023/12/16 16:16:09;;;;;;;0.00;0.00;;;;;;;-145.06;100.00;54965.88;10352947;28;20018;-71
2023/12/16 16:21:09;;;;;;;0.10;0.10;;;;;;;-145.06;100.00;54988.16;10352732;28;20541;-71
2023/12/16 16:26:10;;;;;;;0.00;0.00;;;;;;;-145.06;100.00;54951.69;10354193;28;20029;-71
2023/12/16 16:31:10;;;;;;;0.00;0.00;;;;;;;-145.06;100.00;54978.03;10353956;28;20084;-71
2023/12/16 16:36:11;;;;;;;0.10;0.10;;;;;;;-145.06;100.00;54976.00;10353826;28;20025;-71
2023/12/16 16:41:14;;;;;;;0.10;0.10;;;;;;;-145.06;100.00;54982.06;10351915;28;20292;-71
2023/12/16 16:46:16;;;;;;;0.10;0.10;;;;;;;-145.06;100.00;54988.16;10370826;22;20276;-68
2023/12/16 16:51:18;;;;;;;0.00;0.00;;;;;;;-145.06;100.00;55018.53;10325319;28;20038;-68
2023/12/16 16:56:18;;;;;;;0.10;0.10;;;;;;;-145.06;100.00;55016.50;10350186;28;20024;-69
2023/12/16 17:01:18;;;;;;;0.10;0.10;;;;;;;-145.06;100.00;54990.19;10339473;28;20014;-69
2023/12/16 17:06:19;;;;;;;0.10;0.10;;;;;;;-145.06;100.00;55020.56;10343294;28;20030;-68
2023/12/16 17:11:19;;;;;;;0.10;0.10;;;;;;;-145.06;100.00;55000.31;10344426;28;20018;-68
2023/12/16 17:16:20;;;;;;;0.10;0.10;;;;;;;-145.06;100.00;55008.41;10340740;28;20038;-68
2023/12/16 17:21:20;;;;;;;0.00;0.00;;;;;;;-145.06;100.00;55004.34;10339486;28;20498;-69
2023/12/16 17:26:20;;;;;;;0.00;0.00;;;;;;;-145.06;100.00;54994.22;10336773;28;20022;-69
2023/12/16 17:31:23;;;;;;;0.10;0.10;;;;;;;-145.06;100.00;55010.44;10340275;28;20026;-69
2023/12/16 17:36:23;;;;;;;0.00;0.00;;;;;;;-145.06;100.00;55000.31;10338502;28;20057;-69
2023/12/16 17:41:24;;;;;;;0.10;0.10;;;;;;;-145.06;100.00;55008.41;10341385;28;20415;-68
2023/12/16 17:46:26;;;;;;;0.03;0.03;;;;;;;-145.06;100.00;54980.03;10337263;28;20261;-69
2023/12/16 17:51:27;;;;;;;0.10;0.10;;;;;;;-145.06;100.00;54992.19;10337105;28;20026;-69
2023/12/16 17:56:27;;;;;;;0.00;0.00;;;;;;;-145.06;100.00;55022.59;10337720;28;20475;-69
2023/12/16 18:01:28;;;;;;;0.00;0.00;;;;;;;-145.06;100.00;54990.19;10342267;28;20337;-68
2023/12/16 18:06:28;;;;;;;0.10;0.10;;;;;;;-145.06;100.00;54961.81;10337555;28;20077;-69
2023/12/16 18:11:28;;;;;;;0.00;0.00;;;;;;;-145.06;100.00;54996.25;10339110;28;20022;-69
2023/12/16 18:16:29;;;;;;;0.00;0.00;;;;;;;-145.06;100.00;54996.25;10339326;28;20518;-69
2023/12/16 18:21:30;;;;;;;0.00;0.00;;;;;;;-145.06;100.00;54953.72;10340899;28;20014;-69
2023/12/16 18:26:30;;;;;;;0.10;0.10;;;;;;;-145.06;100.00;54937.50;10334519;28;20125;-69
2023/12/16 18:31:31;;;;;;;0.10;0.10;;;;;;;-145.06;100.00;54941.56;10335656;28;20415;-69
2023/12/16 18:36:31;;;;;;;0.10;0.10;;;;;;;-145.06;100.00;54947.63;10338893;28;20026;-69
2023/12/16 18:41:31;;;;;;;0.00;0.00;;;;;;;-145.06;100.00;54947.63;10337876;28;20034;-69
2023/12/16 18:46:34;;;;;;;0.10;0.10;;;;;;;-145.06;100.00;54945.59;10337290;28;20487;-69
2023/12/16 18:51:34;;;;;;;0.00;0.00;;;;;;;-145.06;100.00;54929.41;10334372;28;20641;-69
2023/12/16 18:56:35;;;;;;;0.00;0.00;;;;;;;-145.06;100.00;54919.28;10336855;28;20028;-68
2023/12/16 19:01:35;;;;;;;0.10;0.10;;;;;;;-145.06;100.00;54907.13;10332029;28;20045;-68
2023/12/16 19:06:38;;;;;;;0.00;0.00;;;;;;;-145.06;100.00;54864.59;10331434;28;20719;-68
2023/12/16 19:11:39;;;;;;;0.00;0.00;;;;;;;-145.06;100.00;54882.81;10331034;28;20019;-68
2023/12/16 19:16:40;;;;;;;0.08;0.08;;;;;;;-145.06;100.00;54854.44;10331422;28;20022;-68
2023/12/16 19:21:40;;;;;;;0.10;0.10;;;;;;;-145.06;100.00;54832.16;10330957;28;20018;-67
2023/12/16 19:26:40;;;;;;;0.10;0.10;;;;;;;-145.06;100.00;54852.44;10330901;28;20026;-69
2023/12/16 19:31:41;;;;;;;0.10;0.10;;;;;;;-145.06;100.00;54844.31;10334186;28;20029;-69
2023/12/16 19:36:41;;;;;;;0.00;0.00;;;;;;;-145.06;100.00;54820.00;10332655;28;20065;-68
2023/12/16 19:41:41;;;;;;;0.10;0.10;;;;;;;-145.06;100.00;54820.00;10332956;28;20106;-68
2023/12/16 19:46:42;;;;;;;0.00;0.00;;;;;;;-145.06;100.00;54824.06;10332676;28;20391;-68
2023/12/16 19:51:43;;;;;;;0.10;0.10;;;;;;;-145.06;100.00;54854.44;10332110;28;20019;-69
2023/12/16 19:56:43;;;;;;;0.10;0.10;;;;;;;-145.06;100.00;54815.97;10331159;28;20270;-68
2023/12/16 20:01:47;;;;;;;0.10;0.10;;;;;;;-145.06;100.00;54807.88;10333688;28;20023;-68
2023/12/16 20:06:47;;;;;;;0.05;0.05;;;;;;;-145.06;100.00;54834.19;10330527;28;20098;-68
2023/12/16 20:11:47;;;;;;;0.07;0.07;;;;;;;-145.06;100.00;54822.03;10332413;28;20394;-68
2023/12/16 20:16:48;;;;;;;0.10;0.10;;;;;;;-145.06;100.00;54820.00;10331666;28;20032;-68
2023/12/16 20:21:49;;;;;;;0.00;0.00;;;;;;;-145.06;100.00;54799.75;10338531;28;20021;-68
2023/12/16 20:26:50;;;;;;;0.00;0.00;;;;;;;-145.06;100.00;54763.31;10341105;28;20059;-68
2023/12/16 20:31:51;;;;;;;0.00;0.00;;;;;;;-145.06;100.00;54755.19;10342249;28;20021;-68
2023/12/16 20:36:52;;;;;;;0.10;0.10;;;;;;;-145.06;100.00;54728.88;10341141;28;20022;-68
2023/12/16 20:41:52;;;;;;;0.10;0.10;;;;;;;-145.06;100.00;54730.88;10343559;28;20026;-69
2023/12/16 20:46:52;;;;;;;0.10;0.10;;;;;;;-145.06;100.00;54720.75;10340093;28;20047;-68
2023/12/16 20:51:55;;;;;;;0.05;0.05;;;;;;;-145.06;100.00;54718.72;10341465;28;20535;-68
2023/12/16 20:56:56;;;;;;;0.10;0.10;;;;;;;-145.06;100.00;54708.59;10338094;28;20025;-68
2023/12/16 21:01:57;;;;;;;0.10;0.10;;;;;;;-145.06;100.00;54690.38;10342323;28;20509;-68
2023/12/16 21:06:57;;;;;;;0.00;0.00;;;;;;;-145.06;100.00;54662.03;10341777;28;20109;-68
2023/12/16 21:11:57;;;;;;;0.00;0.00;;;;;;;-145.06;100.00;54676.19;10339302;28;20034;-68
2023/12/16 21:16:57;;;;;;;0.00;0.00;;;;;;;-145.06;100.00;54690.38;10341225;28;20028;-68
2023/12/16 21:21:58;;;;;;;0.05;0.05;;;;;;;-145.06;100.00;54666.06;10344314;28;20028;-68
2023/12/16 21:26:58;;;;;;;0.10;0.10;;;;;;;-145.06;100.00;54633.66;10342042;28;20426;-68
2023/12/16 21:32:02;;;;;;;0.10;0.10;;;;;;;-145.06;100.00;54621.50;10342161;28;20026;-68
2023/12/16 21:37:02;;;;;;;0.10;0.10;;;;;;;-145.06;100.00;54674.19;10341168;28;20033;-68
2023/12/16 21:42:03;;;;;;;0.10;0.10;;;;;;;-145.06;100.00;54645.81;10341765;28;20479;-68
2023/12/16 21:47:04;;;;;;;0.10;0.10;;;;;;;-145.06;100.00;54637.72;10343608;28;20030;-68
2023/12/16 21:52:04;;;;;;;0.00;0.00;;;;;;;-145.06;100.00;54664.03;10343783;28;20018;-68
2023/12/16 21:57:05;;;;;;;0.10;0.10;;;;;;;-145.06;100.00;54643.78;10343098;28;20164;-68
2023/12/16 22:02:05;;;;;;;0.00;0.00;;;;;;;-145.06;100.00;54639.75;10344250;28;20032;-68
2023/12/16 22:07:05;;;;;;;0.00;0.00;;;;;;;-145.06;100.00;54651.88;10342106;28;20029;-68
2023/12/16 22:12:06;;;;;;;0.10;0.10;;;;;;;-145.06;100.00;54682.28;10343506;28;20033;-69
2023/12/16 22:17:06;;;;;;;0.05;0.05;;;;;;;-145.06;100.00;54678.22;10344256;28;20390;-68
2023/12/16 22:22:07;;;;;;;0.10;0.10;;;;;;;-145.06;100.00;54680.25;10342568;28;20394;-69
2023/12/16 22:27:08;;;;;;;0.00;0.00;;;;;;;-145.06;100.00;54635.69;10342943;28;20036;-69
2023/12/16 22:32:08;;;;;;;0.10;0.10;;;;;;;-145.06;100.00;54645.81;10344291;28;20026;-69